Time;durP1;ratioP1;P1;durP2;ratioP2;P2;SDS_P1;SDS_P2;PMS_P1;PMS_P2;Temp;Humidity;BMP_temperature;BMP_pressure;BME280_temperature;BME280_humidity;BME280_pressure;Samples;Min_cycle;Max_cycle;Signal;HPM_P1;HPM_P2
2023/08/23 00:01:54;;;;;;;;;;;;;;;30.04;49.63;101627.35;106769;1268;25491;-50
2023/08/23 00:04:21;;;;;;;;;;;;;;;30.01;49.57;101624.40;106854;1257;22501;-49
2023/08/23 00:06:48;;;;;;;;;;;;;;;29.98;49.73;101627.02;106717;1264;26188;-50
2023/08/23 00:09:15;;;;;;;;;;;;;;;29.95;49.78;101631.77;106829;1269;25351;-50
2023/08/23 00:11:42;;;;;;;;;;;;;;;29.91;50.07;101630.85;106811;1269;25306;-50
2023/08/23 00:14:09;;;;;;;;;;;;;;;29.89;50.05;101628.92;106808;1261;25465;-50
2023/08/23 00:16:36;;;;;;;;;;;;;;;29.87;50.24;101628.56;106801;1269;25414;-50
2023/08/23 00:19:03;;;;;;;;;;;;;;;29.86;49.99;101629.20;106710;1268;25462;-50
2023/08/23 00:21:30;;;;;;;;;;;;;;;29.86;50.06;101628.32;106818;1262;25341;-49
2023/08/23 00:23:57;;;;;;;;;;;;;;;29.87;49.95;101630.55;106848;1266;25500;-50
2023/08/23 00:26:24;;;;;;;;;;;;;;;29.87;49.71;101632.46;106805;1261;25488;-50
2023/08/23 00:28:51;;;;;;;;;;;;;;;29.88;49.71;101628.42;106878;1259;25344;-50
2023/08/23 00:31:18;;;;;;;;;;;;;;;29.89;49.43;101629.59;106692;1272;25393;-50
2023/08/23 00:33:45;;;;;;;;;;;;;;;29.90;48.93;101624.85;106506;1266;374247;-50
2023/08/23 00:36:12;;;;;;;;;;;;;;;29.91;48.67;101625.86;106854;1269;25330;-49
2023/08/23 00:38:39;;;;;;;;;;;;;;;29.92;48.43;101625.27;106641;1270;22514;-50
2023/08/23 00:41:06;;;;;;;;;;;;;;;29.92;47.93;101627.06;106897;1267;25306;-50
2023/08/23 00:43:33;;;;;;;;;;;;;;;29.91;47.27;101629.23;106813;1264;25379;-50
2023/08/23 00:46:02;;;;;;;;;;;;;;;29.91;46.80;101628.41;106577;1265;25316;-50
2023/08/23 00:48:29;;;;;;;;;;;;;;;29.89;46.60;101624.29;106784;1262;25465;-50
2023/08/23 00:50:57;;;;;;;;;;;;;;;29.87;46.21;101623.73;106764;1269;25344;-49
2023/08/23 00:53:24;;;;;;;;;;;;;;;29.85;46.08;101623.40;106846;1263;25343;-50
2023/08/23 00:55:50;;;;;;;;;;;;;;;29.82;45.97;101623.46;106794;1259;25364;-49
2023/08/23 00:58:18;;;;;;;;;;;;;;;29.79;46.17;101618.92;106792;1269;25329;-49
2023/08/23 01:00:45;;;;;;;;;;;;;;;29.76;46.28;101617.91;106452;1264;24507;-49
2023/08/23 01:03:12;;;;;;;;;;;;;;;29.73;46.51;101614.95;106753;1269;25354;-49
2023/08/23 01:05:57;;;;;;;;;;;;;;;29.71;46.73;101618.30;106776;1269;25289;-50
2023/08/23 01:08:27;;;;;;;;;;;;;;;29.69;46.94;101614.27;106730;1272;25409;-49
2023/08/23 01:10:55;;;;;;;;;;;;;;;29.67;46.98;101614.61;106683;1263;25382;-49
2023/08/23 01:13:29;;;;;;;;;;;;;;;29.65;46.96;101617.08;106726;1269;25328;-48
2023/08/23 01:15:57;;;;;;;;;;;;;;;29.64;47.10;101613.05;106785;1261;22536;-49
2023/08/23 01:18:24;;;;;;;;;;;;;;;29.62;47.16;101614.14;106647;1272;25316;-49
2023/08/23 01:20:52;;;;;;;;;;;;;;;29.61;47.53;101613.02;106751;1266;25334;-49
2023/08/23 01:23:19;;;;;;;;;;;;;;;29.58;47.68;101614.16;106757;1270;25469;-49
2023/08/23 01:25:49;;;;;;;;;;;;;;;29.55;48.05;101611.50;106604;1263;25344;-49
2023/08/23 01:28:18;;;;;;;;;;;;;;;29.54;48.26;101610.62;106755;1269;23120;-50
2023/08/23 01:30:46;;;;;;;;;;;;;;;29.51;48.51;101612.80;106465;1263;22624;-49
2023/08/23 01:33:14;;;;;;;;;;;;;;;29.48;48.54;101609.99;106794;1269;25430;-49
2023/08/23 01:35:53;;;;;;;;;;;;;;;29.44;48.79;101609.08;106791;1263;22507;-49
2023/08/23 01:38:21;;;;;;;;;;;;;;;29.43;48.96;101608.34;106757;1270;25344;-50
2023/08/23 01:40:48;;;;;;;;;;;;;;;29.41;49.20;101609.21;106480;1273;24272;-50
2023/08/23 01:43:15;;;;;;;;;;;;;;;29.40;49.33;101610.23;106584;1268;25464;-49
2023/08/23 01:45:42;;;;;;;;;;;;;;;29.39;49.54;101611.35;106431;1271;25310;-49
2023/08/23 01:48:09;;;;;;;;;;;;;;;29.39;49.46;101606.17;106288;1275;25312;-50
2023/08/23 01:50:37;;;;;;;;;;;;;;;29.39;49.56;101611.71;106508;1275;23524;-49
2023/08/23 01:53:03;;;;;;;;;;;;;;;29.39;49.73;101611.15;106599;1272;25340;-49
2023/08/23 01:55:31;;;;;;;;;;;;;;;29.40;49.78;101610.18;106389;1262;25580;-50
2023/08/23 01:57:57;;;;;;;;;;;;;;;29.41;49.73;101603.65;106487;1270;22514;-50
2023/08/23 02:00:24;;;;;;;;;;;;;;;29.41;49.68;101604.70;106531;1262;25350;-50
2023/08/23 02:02:52;;;;;;;;;;;;;;;29.43;49.71;101605.88;106493;1262;25504;-48
2023/08/23 02:05:19;;;;;;;;;;;;;;;29.44;49.62;101608.98;106361;1274;25341;-49
2023/08/23 02:07:46;;;;;;;;;;;;;;;29.46;49.72;101611.79;106450;1272;25341;-50
2023/08/23 02:10:13;;;;;;;;;;;;;;;29.47;49.54;101608.89;106458;1269;25312;-50
2023/08/23 02:12:41;;;;;;;;;;;;;;;29.47;49.37;101606.35;106412;1262;25388;-50
2023/08/23 02:15:08;;;;;;;;;;;;;;;29.48;49.09;101606.48;106614;1266;25320;-50
2023/08/23 02:17:35;;;;;;;;;;;;;;;29.47;48.50;101608.29;106720;1269;25398;-50
2023/08/23 02:20:02;;;;;;;;;;;;;;;29.48;48.15;101609.16;106838;1269;25507;-51
2023/08/23 02:22:29;;;;;;;;;;;;;;;29.47;47.74;101607.79;106826;1263;25433;-49
2023/08/23 02:24:56;;;;;;;;;;;;;;;29.46;47.69;101608.81;106834;1272;23846;-49
2023/08/23 02:27:23;;;;;;;;;;;;;;;29.44;47.27;101609.16;106900;1271;25305;-49
2023/08/23 02:29:51;;;;;;;;;;;;;;;29.41;47.11;101610.46;106894;1259;22525;-49
2023/08/23 02:32:18;;;;;;;;;;;;;;;29.38;47.08;101611.94;106739;1272;25324;-50
2023/08/23 02:34:45;;;;;;;;;;;;;;;29.35;47.27;101612.23;106816;1262;25366;-50
2023/08/23 02:37:12;;;;;;;;;;;;;;;29.32;47.45;101617.35;106821;1273;25413;-50
2023/08/23 02:39:40;;;;;;;;;;;;;;;29.29;47.70;101622.64;106719;1268;25360;-50
2023/08/23 02:42:06;;;;;;;;;;;;;;;29.25;48.00;101621.20;106599;1271;25382;-50
2023/08/23 02:44:33;;;;;;;;;;;;;;;29.22;48.28;101620.95;106930;1269;25296;-50
2023/08/23 02:47:00;;;;;;;;;;;;;;;29.19;48.74;101621.91;106809;1269;25777;-49
2023/08/23 02:49:27;;;;;;;;;;;;;;;29.15;48.97;101619.92;106785;1269;25305;-51
2023/08/23 02:51:54;;;;;;;;;;;;;;;29.12;49.07;101620.73;106768;1259;25331;-50
2023/08/23 02:54:21;;;;;;;;;;;;;;;29.08;49.17;101623.02;106785;1270;25396;-50
2023/08/23 02:56:50;;;;;;;;;;;;;;;29.04;49.36;101620.09;106816;1262;25306;-50
2023/08/23 02:59:16;;;;;;;;;;;;;;;29.02;49.22;101620.84;106778;1268;24232;-50
2023/08/23 03:01:43;;;;;;;;;;;;;;;29.01;49.36;101618.30;106753;1269;25316;-50
2023/08/23 03:04:10;;;;;;;;;;;;;;;28.99;49.42;101614.81;106845;1269;25364;-49
2023/08/23 03:06:37;;;;;;;;;;;;;;;28.99;49.51;101617.33;106861;1256;25296;-50
2023/08/23 03:09:06;;;;;;;;;;;;;;;29.00;49.28;101618.70;106455;1272;25455;-49
2023/08/23 03:11:32;;;;;;;;;;;;;;;29.01;49.17;101615.73;106815;1272;25306;-50
2023/08/23 03:14:00;;;;;;;;;;;;;;;29.04;49.29;101617.12;106839;1259;25392;-50
2023/08/23 03:16:27;;;;;;;;;;;;;;;29.06;49.31;101620.64;106753;1270;25306;-50
2023/08/23 03:18:55;;;;;;;;;;;;;;;29.10;49.37;101621.23;106974;1267;25486;-50
2023/08/23 03:21:22;;;;;;;;;;;;;;;29.13;49.14;101624.38;106762;1269;25303;-50
2023/08/23 03:23:49;;;;;;;;;;;;;;;29.17;48.89;101621.33;106738;1268;23002;-51
2023/08/23 03:26:16;;;;;;;;;;;;;;;29.21;48.95;101623.00;106717;1269;24206;-50
2023/08/23 03:28:43;;;;;;;;;;;;;;;29.24;48.54;101623.27;106767;1270;25376;-50
2023/08/23 03:31:10;;;;;;;;;;;;;;;29.26;48.20;101623.23;106816;1268;25363;-50
2023/08/23 03:33:37;;;;;;;;;;;;;;;29.27;48.34;101621.53;106768;1269;25375;-50
2023/08/23 03:36:04;;;;;;;;;;;;;;;29.26;48.60;101621.30;106565;1271;25316;-50
2023/08/23 03:38:32;;;;;;;;;;;;;;;29.22;49.97;101622.84;106775;1267;25357;-50
2023/08/23 03:40:59;;;;;;;;;;;;;;;29.19;51.48;101621.57;106736;1264;25343;-50
2023/08/23 03:43:25;;;;;;;;;;;;;;;29.15;52.19;101626.55;106782;1273;25455;-50
2023/08/23 03:45:52;;;;;;;;;;;;;;;29.11;52.34;101626.88;106805;1267;25343;-50
2023/08/23 03:48:19;;;;;;;;;;;;;;;29.08;52.51;101627.82;106788;1255;25465;-50
2023/08/23 03:50:47;;;;;;;;;;;;;;;29.06;52.87;101625.31;106751;1259;25347;-50
2023/08/23 03:53:14;;;;;;;;;;;;;;;29.05;53.01;101628.98;106776;1260;25373;-50
2023/08/23 03:55:41;;;;;;;;;;;;;;;29.04;53.33;101627.83;106820;1266;25391;-49
2023/08/23 03:58:10;;;;;;;;;;;;;;;29.04;53.32;101627.59;106799;1263;22507;-50
2023/08/23 04:00:37;;;;;;;;;;;;;;;29.05;53.49;101628.27;106773;1270;25334;-49
2023/08/23 04:03:04;;;;;;;;;;;;;;;29.06;53.55;101631.39;106830;1273;25382;-50
2023/08/23 04:05:31;;;;;;;;;;;;;;;29.08;53.63;101635.38;106795;1264;24212;-49
2023/08/23 04:07:58;;;;;;;;;;;;;;;29.10;53.81;101633.77;106876;1270;25333;-50
2023/08/23 04:10:25;;;;;;;;;;;;;;;29.12;54.32;101637.89;106909;1259;25384;-50
2023/08/23 04:12:52;;;;;;;;;;;;;;;29.13;55.00;101638.28;106732;1270;25363;-51
2023/08/23 04:15:20;;;;;;;;;;;;;;;29.13;55.28;101640.82;106733;1275;25378;-49
2023/08/23 04:17:48;;;;;;;;;;;;;;;29.12;55.79;101644.98;106862;1263;25316;-50
2023/08/23 04:20:15;;;;;;;;;;;;;;;29.12;56.10;101650.92;106837;1269;22621;-49
2023/08/23 04:22:42;;;;;;;;;;;;;;;29.12;56.15;101653.58;106853;1260;25350;-49
2023/08/23 04:25:10;;;;;;;;;;;;;;;29.12;56.34;101655.70;106882;1269;25560;-49
2023/08/23 04:27:37;;;;;;;;;;;;;;;29.14;56.60;101657.71;106836;1269;25331;-50
2023/08/23 04:30:08;;;;;;;;;;;;;;;29.17;56.81;101658.71;106808;1265;25303;-51
2023/08/23 04:32:36;;;;;;;;;;;;;;;29.20;56.61;101657.34;106679;1267;22767;-49
2023/08/23 04:35:04;;;;;;;;;;;;;;;29.23;56.36;101659.92;106880;1269;25462;-50
2023/08/23 04:37:31;;;;;;;;;;;;;;;29.25;55.84;101657.46;106744;1272;25309;-50
2023/08/23 04:39:58;;;;;;;;;;;;;;;29.26;55.47;101656.98;106830;1268;25306;-49
2023/08/23 04:42:25;;;;;;;;;;;;;;;29.28;55.34;101662.34;106769;1272;25306;-49
2023/08/23 04:44:52;;;;;;;;;;;;;;;29.30;55.31;101665.21;106777;1269;25449;-49
2023/08/23 04:47:19;;;;;;;;;;;;;;;29.30;55.38;101662.19;106476;1278;25344;-50
2023/08/23 04:49:50;;;;;;;;;;;;;;;29.31;55.50;101662.45;106829;1259;25381;-50
2023/08/23 04:52:17;;;;;;;;;;;;;;;29.31;55.48;101661.56;106731;1267;25548;-50
2023/08/23 04:54:44;;;;;;;;;;;;;;;29.31;55.51;101664.39;106749;1268;25379;-50
2023/08/23 04:57:11;;;;;;;;;;;;;;;29.32;55.61;101664.55;106869;1259;25372;-49
2023/08/23 04:59:38;;;;;;;;;;;;;;;29.32;55.25;101663.61;106539;1270;25306;-49
2023/08/23 05:02:05;;;;;;;;;;;;;;;29.32;55.27;101663.45;106772;1269;25295;-49
2023/08/23 05:04:32;;;;;;;;;;;;;;;29.35;55.21;101660.70;106793;1269;25445;-49
2023/08/23 05:06:59;;;;;;;;;;;;;;;29.39;55.02;101662.64;106747;1270;25334;-49
2023/08/23 05:09:28;;;;;;;;;;;;;;;29.45;54.79;101663.25;106799;1266;25333;-49
2023/08/23 05:11:56;;;;;;;;;;;;;;;29.49;54.60;101666.11;106709;1267;25314;-49
2023/08/23 05:14:23;;;;;;;;;;;;;;;29.50;54.47;101672.05;106755;1270;25539;-50
2023/08/23 05:16:49;;;;;;;;;;;;;;;29.51;54.30;101668.00;106752;1269;24226;-49
2023/08/23 05:19:16;;;;;;;;;;;;;;;29.53;54.07;101664.45;106424;1278;25320;-50
2023/08/23 05:21:43;;;;;;;;;;;;;;;29.55;53.90;101664.11;106805;1273;25415;-50
2023/08/23 05:24:10;;;;;;;;;;;;;;;29.56;53.94;101665.81;106804;1264;25308;-50
2023/08/23 05:26:39;;;;;;;;;;;;;;;29.57;53.98;101668.98;106873;1269;25380;-49
2023/08/23 05:29:06;;;;;;;;;;;;;;;29.57;53.77;101663.95;106838;1270;23332;-49
2023/08/23 05:31:33;;;;;;;;;;;;;;;29.58;53.78;101667.08;106735;1270;25306;-50
2023/08/23 05:34:00;;;;;;;;;;;;;;;29.58;53.71;101667.58;106767;1269;25306;-49
2023/08/23 05:36:28;;;;;;;;;;;;;;;29.59;53.53;101666.43;106832;1268;25321;-50
2023/08/23 05:38:55;;;;;;;;;;;;;;;29.62;53.37;101662.45;106693;1266;22625;-50
2023/08/23 05:41:22;;;;;;;;;;;;;;;29.64;53.12;101660.08;106493;1269;25351;-50
2023/08/23 05:43:49;;;;;;;;;;;;;;;29.67;52.93;101661.09;106711;1261;25471;-51
2023/08/23 05:46:16;;;;;;;;;;;;;;;29.71;53.08;101661.63;106894;1267;25321;-49
2023/08/23 05:48:43;;;;;;;;;;;;;;;29.76;52.92;101658.52;106749;1265;23845;-51
2023/08/23 05:51:12;;;;;;;;;;;;;;;29.81;52.67;101659.17;106650;1278;24494;-49
2023/08/23 05:53:39;;;;;;;;;;;;;;;29.83;52.54;101660.55;106850;1270;25316;-49
2023/08/23 05:56:06;;;;;;;;;;;;;;;29.87;52.33;101663.42;106790;1268;25306;-49
2023/08/23 05:58:33;;;;;;;;;;;;;;;29.93;52.44;101660.25;106777;1271;25306;-50
2023/08/23 06:00:59;;;;;;;;;;;;;;;30.02;52.31;101660.14;106759;1270;25306;-49
2023/08/23 06:03:26;;;;;;;;;;;;;;;30.15;51.97;101655.91;106747;1269;25302;-49
2023/08/23 06:05:56;;;;;;;;;;;;;;;30.30;51.14;101664.73;106761;1269;25334;-49
2023/08/23 06:08:23;;;;;;;;;;;;;;;30.49;50.72;101665.88;106465;1273;25522;-49
2023/08/23 06:10:50;;;;;;;;;;;;;;;30.66;49.77;101668.61;106763;1274;25391;-49
2023/08/23 06:13:17;;;;;;;;;;;;;;;30.78;49.19;101671.46;106762;1270;25305;-49
2023/08/23 06:15:43;;;;;;;;;;;;;;;30.88;48.90;101671.60;106840;1270;25392;-50
2023/08/23 06:18:10;;;;;;;;;;;;;;;30.99;48.50;101666.63;106787;1270;25293;-49
2023/08/23 06:20:39;;;;;;;;;;;;;;;31.08;48.12;101668.25;106756;1269;25500;-50
2023/08/23 06:23:05;;;;;;;;;;;;;;;31.17;47.77;101668.88;106843;1274;25296;-49
2023/08/23 06:25:33;;;;;;;;;;;;;;;31.25;47.58;101666.34;106769;1269;25302;-51
2023/08/23 06:28:00;;;;;;;;;;;;;;;31.30;47.49;101666.73;106832;1271;25322;-50
2023/08/23 06:30:27;;;;;;;;;;;;;;;31.35;47.49;101665.52;106839;1264;25536;-49
2023/08/23 06:32:55;;;;;;;;;;;;;;;31.41;47.45;101666.81;106793;1266;24337;-50
2023/08/23 06:35:23;;;;;;;;;;;;;;;31.48;47.08;101665.55;106781;1267;25305;-49
2023/08/23 06:37:50;;;;;;;;;;;;;;;31.61;46.63;101668.98;106853;1264;25299;-49
2023/08/23 06:40:18;;;;;;;;;;;;;;;31.79;46.04;101666.27;106793;1264;25344;-49
2023/08/23 06:42:44;;;;;;;;;;;;;;;32.02;45.70;101667.09;106738;1270;25316;-49
2023/08/23 06:45:12;;;;;;;;;;;;;;;32.26;45.19;101669.65;106874;1264;25325;-49
2023/08/23 06:47:39;;;;;;;;;;;;;;;32.41;44.88;101677.27;106808;1260;25464;-50
2023/08/23 06:50:06;;;;;;;;;;;;;;;32.48;44.60;101679.79;106804;1267;25330;-49
2023/08/23 06:52:39;;;;;;;;;;;;;;;32.50;44.40;101680.14;106748;1264;22499;-49
2023/08/23 06:55:06;;;;;;;;;;;;;;;32.50;44.13;101679.96;106803;1260;25395;-49
2023/08/23 06:57:33;;;;;;;;;;;;;;;32.47;44.05;101673.42;106842;1267;25450;-50
2023/08/23 07:00:00;;;;;;;;;;;;;;;32.45;44.32;101669.48;106848;1269;25326;-49
2023/08/23 07:02:27;;;;;;;;;;;;;;;32.46;43.90;101669.42;106802;1261;25372;-49
2023/08/23 07:04:54;;;;;;;;;;;;;;;32.51;42.71;101666.05;106755;1264;25306;-49
2023/08/23 07:07:20;;;;;;;;;;;;;;;32.57;42.24;101670.50;106818;1271;25309;-49
2023/08/23 07:09:48;;;;;;;;;;;;;;;32.65;42.21;101668.38;106806;1269;25376;-48
2023/08/23 07:12:15;;;;;;;;;;;;;;;32.77;42.21;101672.14;106589;1266;24191;-49
2023/08/23 07:14:42;;;;;;;;;;;;;;;32.90;41.70;101674.59;106709;1265;25426;-49
2023/08/23 07:17:09;;;;;;;;;;;;;;;33.03;41.55;101677.29;106702;1272;25465;-50
2023/08/23 07:19:35;;;;;;;;;;;;;;;33.21;41.45;101675.78;106723;1267;25350;-51
2023/08/23 07:22:04;;;;;;;;;;;;;;;33.44;40.85;101673.73;107037;1270;25320;-50
2023/08/23 07:24:31;;;;;;;;;;;;;;;33.71;40.30;101671.98;107021;1260;25331;-49
2023/08/23 07:26:58;;;;;;;;;;;;;;;33.96;39.37;101674.05;107420;1266;25465;-50
2023/08/23 07:29:25;;;;;;;;;;;;;;;34.18;38.57;101673.31;107164;1270;23459;-50
2023/08/23 07:31:52;;;;;;;;;;;;;;;34.39;38.05;101674.91;106985;1260;25325;-50
2023/08/23 07:34:19;;;;;;;;;;;;;;;34.59;37.51;101675.42;106873;1261;25307;-51
2023/08/23 07:36:46;;;;;;;;;;;;;;;34.74;36.71;101674.34;106961;1269;24210;-50
2023/08/23 07:39:13;;;;;;;;;;;;;;;34.83;36.45;101674.44;106504;1270;23431;-51
2023/08/23 07:41:40;;;;;;;;;;;;;;;34.84;36.60;101675.09;106843;1265;22629;-51
2023/08/23 07:44:06;;;;;;;;;;;;;;;34.77;36.72;101674.23;106962;1268;25331;-50
2023/08/23 07:46:33;;;;;;;;;;;;;;;34.66;36.75;101674.56;107073;1263;25367;-50
2023/08/23 07:49:00;;;;;;;;;;;;;;;34.51;36.96;101675.05;107494;1260;25344;-50
2023/08/23 07:51:28;;;;;;;;;;;;;;;34.36;37.63;101673.77;106907;1267;25309;-50
2023/08/23 07:53:55;;;;;;;;;;;;;;;34.23;37.79;101674.58;106745;1263;22501;-50
2023/08/23 07:56:21;;;;;;;;;;;;;;;34.09;37.88;101672.30;107151;1260;25327;-50
2023/08/23 07:58:48;;;;;;;;;;;;;;;33.96;38.38;101669.11;107065;1255;24287;-51
2023/08/23 08:01:15;;;;;;;;;;;;;;;33.86;38.86;101665.92;106894;1264;25324;-50
2023/08/23 08:03:42;;;;;;;;;;;;;;;33.76;39.26;101656.50;107008;1260;25504;-50
2023/08/23 08:06:09;;;;;;;;;;;;;;;33.67;39.79;101648.15;106885;1273;25392;-49
2023/08/23 08:08:39;;;;;;;;;;;;;;;33.59;39.95;101649.59;107013;1270;23283;-51
2023/08/23 08:11:05;;;;;;;;;;;;;;;33.54;40.08;101654.67;106955;1258;25331;-50
2023/08/23 08:13:32;;;;;;;;;;;;;;;33.50;40.27;101653.68;107127;1267;24823;-51
2023/08/23 08:16:00;;;;;;;;;;;;;;;33.44;40.02;101655.48;107020;1270;25396;-50
2023/08/23 08:18:27;;;;;;;;;;;;;;;33.40;40.52;101654.51;106790;1264;25500;-50
2023/08/23 08:20:54;;;;;;;;;;;;;;;33.35;40.64;101655.35;106686;1261;25293;-50
2023/08/23 08:23:21;;;;;;;;;;;;;;;33.32;41.28;101653.41;106923;1267;25306;-52
2023/08/23 08:25:48;;;;;;;;;;;;;;;33.29;41.19;101650.25;106924;1260;25578;-50
2023/08/23 08:28:14;;;;;;;;;;;;;;;33.28;41.47;101653.21;106924;1270;25306;-51
2023/08/23 08:30:41;;;;;;;;;;;;;;;33.28;41.84;101655.45;106906;1261;25363;-50
2023/08/23 08:33:08;;;;;;;;;;;;;;;33.27;41.67;101655.14;106746;1261;25484;-50
2023/08/23 08:35:35;;;;;;;;;;;;;;;33.28;41.64;101657.98;107279;1264;25442;-50
2023/08/23 08:38:02;;;;;;;;;;;;;;;33.29;42.25;101663.45;106909;1270;24022;-50
2023/08/23 08:40:29;;;;;;;;;;;;;;;33.30;42.15;101664.19;106732;1264;25452;-51
2023/08/23 08:42:56;;;;;;;;;;;;;;;33.33;42.06;101665.17;107100;1260;25357;-50
2023/08/23 08:45:22;;;;;;;;;;;;;;;33.33;42.10;101665.48;106925;1264;23313;-52
2023/08/23 08:47:51;;;;;;;;;;;;;;;33.32;42.17;101661.96;106693;1264;25316;-51
2023/08/23 08:50:19;;;;;;;;;;;;;;;33.33;42.62;101663.56;106944;1257;22513;-51
2023/08/23 08:52:51;;;;;;;;;;;;;;;33.34;42.24;101662.50;106791;1269;25333;-50
2023/08/23 08:55:20;;;;;;;;;;;;;;;33.35;42.39;101657.91;106911;1270;22505;-50
2023/08/23 08:57:48;;;;;;;;;;;;;;;33.37;42.74;101658.47;106884;1269;23852;-50
2023/08/23 09:00:16;;;;;;;;;;;;;;;33.37;42.99;101656.77;107138;1258;25334;-51
2023/08/23 09:02:43;;;;;;;;;;;;;;;33.39;43.03;101658.17;106673;1258;25328;-51
2023/08/23 09:05:10;;;;;;;;;;;;;;;33.40;42.95;101656.64;106851;1266;25452;-50
2023/08/23 09:07:37;;;;;;;;;;;;;;;33.41;42.99;101652.75;106834;1261;25504;-51
2023/08/23 09:10:04;;;;;;;;;;;;;;;33.42;43.20;101651.42;106544;1267;23858;-51
2023/08/23 09:12:32;;;;;;;;;;;;;;;33.44;43.44;101650.18;106865;1255;25379;-49
2023/08/23 09:15:04;;;;;;;;;;;;;;;33.45;43.34;101652.14;107215;1263;25380;-52
2023/08/23 09:17:33;;;;;;;;;;;;;;;33.47;43.71;101649.46;106832;1260;24249;-51
2023/08/23 09:20:07;;;;;;;;;;;;;;;33.49;43.53;101649.60;106893;1261;25393;-50
2023/08/23 09:22:34;;;;;;;;;;;;;;;33.51;43.54;101642.90;106902;1260;25450;-51
2023/08/23 09:25:01;;;;;;;;;;;;;;;33.54;42.66;101636.55;106871;1260;25303;-50
2023/08/23 09:27:28;;;;;;;;;;;;;;;33.55;42.03;101631.14;106992;1262;25351;-52
2023/08/23 09:30:05;;;;;;;;;;;;;;;33.58;42.11;101629.98;107084;1267;25421;-50
2023/08/23 09:32:32;;;;;;;;;;;;;;;33.59;42.15;101620.10;107068;1262;23339;-51
2023/08/23 09:35:12;;;;;;;;;;;;;;;33.62;42.02;101616.81;106757;1259;25799;-51
2023/08/23 09:37:40;;;;;;;;;;;;;;;33.63;41.76;101613.23;106760;1258;25305;-51
2023/08/23 09:40:20;;;;;;;;;;;;;;;33.64;41.67;101611.70;106920;1255;22583;-50
2023/08/23 09:42:47;;;;;;;;;;;;;;;33.64;40.16;101607.34;107135;1269;22510;-50
2023/08/23 09:45:21;;;;;;;;;;;;;;;33.64;40.90;101606.97;106792;1263;25383;-50
2023/08/23 09:47:52;;;;;;;;;;;;;;;33.65;42.02;101609.45;107213;1260;22509;-50
2023/08/23 09:50:19;;;;;;;;;;;;;;;33.66;41.84;101610.79;107047;1267;25316;-51
2023/08/23 09:52:51;;;;;;;;;;;;;;;33.67;41.69;101606.40;106919;1260;24274;-50
2023/08/23 09:55:18;;;;;;;;;;;;;;;33.68;42.11;101607.91;106773;1259;25379;-50
2023/08/23 09:57:45;;;;;;;;;;;;;;;33.68;41.90;101606.79;106786;1270;25448;-50
2023/08/23 10:00:13;;;;;;;;;;;;;;;33.70;42.10;101607.67;106669;1267;25360;-50
2023/08/23 10:02:40;;;;;;;;;;;;;;;33.71;41.77;101607.41;107177;1260;25393;-50
2023/08/23 10:05:06;;;;;;;;;;;;;;;33.71;41.86;101610.61;107207;1254;22533;-50
2023/08/23 10:07:34;;;;;;;;;;;;;;;33.70;41.78;101613.25;106966;1255;26314;-50
2023/08/23 10:10:01;;;;;;;;;;;;;;;33.70;41.50;101607.09;106772;1255;22654;-50
2023/08/23 10:12:29;;;;;;;;;;;;;;;33.71;41.00;101606.09;106870;1256;24252;-50
2023/08/23 10:14:55;;;;;;;;;;;;;;;33.73;40.72;101598.07;106787;1264;25312;-50
2023/08/23 10:17:22;;;;;;;;;;;;;;;33.73;40.77;101600.16;106848;1260;25386;-50
2023/08/23 10:19:52;;;;;;;;;;;;;;;33.72;39.47;101600.10;106915;1267;25489;-50
2023/08/23 10:22:19;;;;;;;;;;;;;;;33.71;38.73;101598.97;106823;1270;25306;-51
2023/08/23 10:24:49;;;;;;;;;;;;;;;33.68;38.50;101598.18;107092;1261;22503;-50
2023/08/23 10:27:16;;;;;;;;;;;;;;;33.64;38.74;101597.95;107043;1260;25462;-50
2023/08/23 10:29:49;;;;;;;;;;;;;;;33.63;38.78;101600.81;106803;1269;24356;-50
2023/08/23 10:32:15;;;;;;;;;;;;;;;33.62;38.72;101604.88;106620;1256;25466;-51
2023/08/23 10:34:42;;;;;;;;;;;;;;;33.61;39.04;101605.13;106465;1269;25344;-50
2023/08/23 10:37:13;;;;;;;;;;;;;;;33.61;39.08;101601.25;107216;1264;25341;-49
2023/08/23 10:39:48;;;;;;;;;;;;;;;33.60;39.27;101599.13;106791;1273;25344;-49
2023/08/23 10:42:18;;;;;;;;;;;;;;;33.61;39.50;101599.94;106776;1265;24228;-51
2023/08/23 10:44:55;;;;;;;;;;;;;;;33.62;39.68;101596.20;107195;1263;25367;-49
2023/08/23 10:47:21;;;;;;;;;;;;;;;33.64;39.57;101592.05;106854;1259;22570;-49
2023/08/23 10:49:48;;;;;;;;;;;;;;;33.66;39.29;101587.52;107184;1260;25305;-50
2023/08/23 10:52:15;;;;;;;;;;;;;;;33.68;39.06;101584.70;107203;1257;23313;-50
2023/08/23 10:54:42;;;;;;;;;;;;;;;33.68;38.47;101583.09;106688;1262;24265;-50
2023/08/23 10:57:09;;;;;;;;;;;;;;;33.67;38.29;101580.09;106922;1259;25835;-50
2023/08/23 10:59:36;;;;;;;;;;;;;;;33.67;39.09;101574.15;106851;1259;25392;-50
2023/08/23 11:02:03;;;;;;;;;;;;;;;33.68;38.88;101575.73;106597;1276;25306;-50
2023/08/23 11:04:30;;;;;;;;;;;;;;;33.69;38.90;101577.05;106641;1277;22524;-50
2023/08/23 11:06:57;;;;;;;;;;;;;;;33.70;38.93;101574.80;107329;1259;25445;-50
2023/08/23 11:09:24;;;;;;;;;;;;;;;33.70;38.65;101572.95;106927;1260;23238;-50
2023/08/23 11:11:51;;;;;;;;;;;;;;;33.69;38.76;101571.31;106892;1260;25385;-49
2023/08/23 11:14:18;;;;;;;;;;;;;;;33.65;38.88;101564.29;106925;1259;25504;-50
2023/08/23 11:16:45;;;;;;;;;;;;;;;33.62;38.87;101563.45;107065;1270;25315;-50
2023/08/23 11:19:13;;;;;;;;;;;;;;;33.60;38.74;101560.63;106971;1254;25323;-50
2023/08/23 11:21:40;;;;;;;;;;;;;;;33.60;39.07;101557.96;106837;1257;25315;-50
2023/08/23 11:24:07;;;;;;;;;;;;;;;33.60;38.94;101552.73;107301;1259;25328;-50
2023/08/23 11:26:36;;;;;;;;;;;;;;;33.60;38.84;101548.59;107086;1256;25500;-51
2023/08/23 11:29:04;;;;;;;;;;;;;;;33.60;38.04;101548.39;106797;1265;25404;-50
2023/08/23 11:31:34;;;;;;;;;;;;;;;33.61;38.66;101546.13;107053;1259;25331;-50
2023/08/23 11:34:07;;;;;;;;;;;;;;;33.63;39.31;101541.91;106962;1257;25349;-51
2023/08/23 11:36:34;;;;;;;;;;;;;;;33.67;39.11;101538.15;106997;1261;25306;-51
2023/08/23 11:39:03;;;;;;;;;;;;;;;33.69;38.98;101533.30;107105;1259;25436;-50
2023/08/23 11:41:30;;;;;;;;;;;;;;;33.71;38.96;101528.00;106882;1270;25324;-50
2023/08/23 11:43:57;;;;;;;;;;;;;;;33.74;39.04;101524.14;106883;1265;25427;-50
2023/08/23 11:46:24;;;;;;;;;;;;;;;33.75;39.03;101517.86;106676;1261;25327;-50
2023/08/23 11:48:52;;;;;;;;;;;;;;;33.76;38.83;101514.52;107114;1260;25441;-50
2023/08/23 11:51:19;;;;;;;;;;;;;;;33.76;38.66;101511.64;107036;1254;25305;-51
2023/08/23 11:53:50;;;;;;;;;;;;;;;33.75;38.45;101504.89;107119;1256;25297;-50
2023/08/23 11:56:17;;;;;;;;;;;;;;;33.76;38.37;101503.23;106892;1262;25334;-50
2023/08/23 11:58:44;;;;;;;;;;;;;;;33.76;38.42;101499.08;106845;1263;25327;-51
2023/08/23 12:01:10;;;;;;;;;;;;;;;33.75;38.01;101497.02;106793;1268;25390;-49
2023/08/23 12:03:38;;;;;;;;;;;;;;;33.73;38.00;101498.80;106901;1269;25306;-50
2023/08/23 12:06:05;;;;;;;;;;;;;;;33.72;37.82;101497.72;106827;1273;25516;-50
2023/08/23 12:08:33;;;;;;;;;;;;;;;33.70;37.93;101499.39;106902;1259;25349;-50
2023/08/23 12:11:00;;;;;;;;;;;;;;;33.68;38.58;101501.20;106937;1262;25474;-50
2023/08/23 12:13:27;;;;;;;;;;;;;;;33.64;38.86;101503.70;106780;1262;25353;-50
2023/08/23 12:15:54;;;;;;;;;;;;;;;33.61;38.50;101504.89;106939;1268;25357;-50
2023/08/23 12:18:22;;;;;;;;;;;;;;;33.58;38.30;101505.23;106685;1261;25409;-50
2023/08/23 12:20:49;;;;;;;;;;;;;;;33.56;38.77;101503.91;106951;1261;23047;-50
2023/08/23 12:23:16;;;;;;;;;;;;;;;33.54;39.36;101503.53;106770;1256;25462;-50
2023/08/23 12:25:43;;;;;;;;;;;;;;;33.54;39.66;101503.89;107048;1259;25354;-50
2023/08/23 12:28:10;;;;;;;;;;;;;;;33.54;39.11;101500.27;107087;1263;25442;-50